Time;durP1;ratioP1;P1;durP2;ratioP2;P2;SDS_P1;SDS_P2;PMS_P1;PMS_P2;Temp;Humidity;BMP_temperature;BMP_pressure;BME280_temperature;BME280_humidity;BME280_pressure;Samples;Min_cycle;Max_cycle;Signal;HPM_P1;HPM_P2
2022/07/17 00:01:13;;;;;;;6.70;2.27;;;16.70;99.90;;;;;;5036560;28;20239;-81
2022/07/17 00:03:39;;;;;;;4.03;2.60;;;16.80;99.90;;;;;;5036875;28;20175;-81
2022/07/17 00:06:05;;;;;;;6.40;2.20;;;16.70;99.90;;;;;;5036470;28;20487;-81
2022/07/17 00:08:31;;;;;;;6.60;2.50;;;16.60;99.90;;;;;;5036583;28;20434;-80
2022/07/17 00:10:58;;;;;;;5.70;3.53;;;16.60;99.90;;;;;;5036362;28;20465;-82
2022/07/17 00:13:24;;;;;;;10.93;2.50;;;16.60;99.90;;;;;;5036168;28;20414;-81
2022/07/17 00:15:51;;;;;;;5.00;2.70;;;16.70;99.90;;;;;;5036264;28;20458;-81
2022/07/17 00:18:17;;;;;;;4.60;1.87;;;16.60;99.90;;;;;;5035670;28;20445;-81
2022/07/17 00:20:45;;;;;;;5.10;1.90;;;16.60;99.90;;;;;;5035859;28;20422;-81
2022/07/17 00:23:11;;;;;;;5.93;2.80;;;16.50;99.90;;;;;;5035854;28;20414;-80
2022/07/17 00:25:37;;;;;;;4.70;2.50;;;16.40;99.90;;;;;;5035245;28;20509;-81
2022/07/17 00:28:03;;;;;;;4.90;2.43;;;16.40;99.90;;;;;;5035398;28;20619;-81
2022/07/17 00:30:29;;;;;;;4.93;2.50;;;16.30;99.90;;;;;;5035599;28;20183;-81
2022/07/17 00:32:55;;;;;;;6.60;2.53;;;16.30;99.90;;;;;;5035869;28;20795;-81
2022/07/17 00:35:22;;;;;;;9.83;2.90;;;;;;;;;;5035110;28;20425;-81
2022/07/17 00:37:49;;;;;;;3.60;2.10;;;16.20;99.90;;;;;;5035125;28;20219;-81
2022/07/17 00:40:21;;;;;;;7.47;2.40;;;16.20;99.90;;;;;;5035509;28;20422;-81
2022/07/17 00:42:48;;;;;;;5.67;2.20;;;16.10;99.90;;;;;;5035224;28;20802;-81
2022/07/17 00:45:14;;;;;;;7.90;2.50;;;16.10;99.90;;;;;;5035114;28;20975;-81
2022/07/17 00:47:57;;;;;;;5.60;2.40;;;16.10;99.90;;;;;;5034576;28;20445;-81
2022/07/17 00:50:25;;;;;;;4.60;2.33;;;16.20;99.90;;;;;;5034872;28;20517;-81
2022/07/17 00:52:51;;;;;;;4.53;2.10;;;16.10;99.90;;;;;;5034474;28;20418;-81
2022/07/17 00:55:18;;;;;;;3.40;1.83;;;16.10;99.90;;;;;;5034471;28;20453;-81
2022/07/17 00:57:46;;;;;;;3.73;2.23;;;16.00;99.90;;;;;;5034679;28;20535;-80
2022/07/17 01:00:13;;;;;;;4.30;2.50;;;16.00;99.90;;;;;;5038131;28;20421;-80
2022/07/17 01:02:39;;;;;;;4.47;2.07;;;15.90;99.90;;;;;;5037940;28;20433;-81
2022/07/17 01:05:06;;;;;;;3.77;2.53;;;15.80;99.90;;;;;;5037924;28;20410;-81
2022/07/17 01:07:33;;;;;;;5.80;2.60;;;15.90;99.90;;;;;;5037405;28;20782;-82
2022/07/17 01:09:58;;;;;;;5.10;2.20;;;15.90;99.90;;;;;;5037711;28;21062;-81
2022/07/17 01:12:25;;;;;;;10.30;2.50;;;15.80;99.90;;;;;;5037150;28;20505;-81
2022/07/17 01:14:52;;;;;;;3.87;2.43;;;15.70;99.90;;;;;;5037264;28;20175;-80
2022/07/17 01:17:19;;;;;;;5.57;2.67;;;15.60;99.90;;;;;;5036391;28;20535;-80
2022/07/17 01:19:44;;;;;;;4.10;2.20;;;15.60;99.90;;;;;;5037018;28;20501;-80
2022/07/17 01:22:10;;;;;;;7.03;2.90;;;15.60;99.90;;;;;;5036899;28;20992;-80
2022/07/17 01:24:40;;;;;;;5.83;2.27;;;15.50;99.90;;;;;;5036855;28;20589;-80
2022/07/17 01:27:06;;;;;;;4.57;2.40;;;15.50;99.90;;;;;;5036298;28;20650;-80
2022/07/17 01:29:32;;;;;;;3.80;2.00;;;15.50;99.90;;;;;;5036779;28;20859;-80
2022/07/17 01:31:58;;;;;;;6.00;2.90;;;15.40;99.90;;;;;;5036496;28;20528;-80
2022/07/17 01:34:23;;;;;;;5.37;2.30;;;15.50;99.90;;;;;;5037149;28;20933;-80
2022/07/17 01:36:49;;;;;;;6.97;2.60;;;15.30;99.90;;;;;;5037112;28;20246;-81
2022/07/17 01:39:15;;;;;;;4.47;2.60;;;15.30;99.90;;;;;;5037533;28;20226;-80
2022/07/17 01:41:41;;;;;;;8.67;2.50;;;15.30;99.90;;;;;;5037170;28;20190;-81
2022/07/17 01:44:08;;;;;;;5.43;2.60;;;15.30;99.90;;;;;;5037183;28;20267;-80
2022/07/17 01:46:34;;;;;;;5.27;2.57;;;15.30;99.90;;;;;;5036931;28;20422;-80
2022/07/17 01:49:03;;;;;;;4.47;2.57;;;15.30;99.90;;;;;;5037294;28;21014;-81
2022/07/17 01:51:29;;;;;;;5.23;2.43;;;15.20;99.90;;;;;;5037541;28;20430;-80
2022/07/17 01:53:54;;;;;;;6.47;2.63;;;15.20;99.90;;;;;;5036852;28;20418;-80
2022/07/17 01:56:21;;;;;;;5.60;2.60;;;15.20;99.90;;;;;;5036731;28;20211;-80
2022/07/17 01:58:47;;;;;;;6.27;2.33;;;15.20;99.90;;;;;;5036820;28;20207;-80
2022/07/17 02:01:12;;;;;;;4.17;2.60;;;15.10;99.90;;;;;;5037180;28;20418;-80
2022/07/17 02:03:38;;;;;;;4.20;2.47;;;15.10;99.90;;;;;;5036700;28;20179;-82
2022/07/17 02:06:04;;;;;;;3.30;2.20;;;15.10;99.90;;;;;;5041921;28;20176;-81
2022/07/17 02:08:30;;;;;;;3.70;2.53;;;15.10;99.90;;;;;;5041885;28;20305;-81
2022/07/17 02:10:55;;;;;;;3.77;2.30;;;15.10;99.90;;;;;;5041899;28;20179;-81
2022/07/17 02:13:21;;;;;;;6.67;2.70;;;15.10;99.90;;;;;;5041772;28;20241;-81
2022/07/17 02:15:47;;;;;;;4.67;2.50;;;15.10;99.90;;;;;;5041204;28;20204;-81
2022/07/17 02:18:13;;;;;;;4.03;2.40;;;15.00;99.90;;;;;;5041382;28;20195;-81
2022/07/17 02:20:38;;;;;;;6.67;2.33;;;15.10;99.90;;;;;;5041025;28;20180;-80
2022/07/17 02:23:04;;;;;;;3.33;2.30;;;15.10;99.90;;;;;;5040847;28;20645;-81
2022/07/17 02:25:30;;;;;;;6.53;2.90;;;15.10;99.90;;;;;;5040600;28;20179;-81
2022/07/17 02:27:56;;;;;;;5.17;2.47;;;15.00;99.90;;;;;;5040446;28;20199;-81
2022/07/17 02:30:21;;;;;;;5.30;2.47;;;14.90;99.90;;;;;;5040372;28;20736;-81
2022/07/17 02:32:47;;;;;;;5.20;2.50;;;14.90;99.90;;;;;;5039851;28;20528;-81
2022/07/17 02:35:14;;;;;;;3.50;2.37;;;14.90;99.90;;;;;;5039906;28;20184;-81
2022/07/17 02:37:42;;;;;;;4.80;2.60;;;14.90;99.90;;;;;;5039610;28;20238;-80
2022/07/17 02:40:08;;;;;;;7.93;2.90;;;14.80;99.90;;;;;;5039696;28;20422;-81
2022/07/17 02:42:34;;;;;;;6.70;2.37;;;14.70;99.90;;;;;;5039038;28;20414;-81
2022/07/17 02:44:59;;;;;;;5.93;2.80;;;14.80;99.90;;;;;;5038755;28;20501;-81
2022/07/17 02:47:30;;;;;;;6.23;2.43;;;14.80;99.90;;;;;;5038593;28;20199;-80
2022/07/17 02:49:56;;;;;;;4.00;2.37;;;14.70;99.90;;;;;;5036098;28;20195;-80
2022/07/17 02:52:23;;;;;;;4.90;2.87;;;14.70;99.90;;;;;;5035508;28;20517;-81
2022/07/17 02:54:49;;;;;;;6.83;3.60;;;14.70;99.90;;;;;;5035806;28;20433;-80
2022/07/17 02:57:15;;;;;;;5.23;2.90;;;14.70;99.90;;;;;;5035522;28;20476;-80
2022/07/17 02:59:42;;;;;;;6.87;2.80;;;14.70;99.90;;;;;;5035608;28;20467;-80
2022/07/17 03:02:08;;;;;;;5.10;2.50;;;14.70;99.90;;;;;;5035752;28;20484;-80
2022/07/17 03:04:33;;;;;;;5.03;2.77;;;14.60;99.90;;;;;;5035534;28;20415;-80
2022/07/17 03:06:59;;;;;;;5.10;2.40;;;14.70;99.90;;;;;;5034772;28;20187;-80
2022/07/17 03:09:25;;;;;;;5.37;2.70;;;14.60;99.90;;;;;;5035454;28;20302;-80
2022/07/17 03:11:51;;;;;;;4.50;2.57;;;14.60;99.90;;;;;;5035502;28;20430;-80
2022/07/17 03:14:17;;;;;;;6.97;2.40;;;14.60;99.90;;;;;;5035348;28;20422;-80
2022/07/17 03:16:43;;;;;;;4.63;2.77;;;14.60;99.90;;;;;;5034920;28;20698;-80
2022/07/17 03:19:09;;;;;;;6.20;2.30;;;14.60;99.90;;;;;;5035081;28;20200;-81
2022/07/17 03:21:34;;;;;;;4.83;2.53;;;14.60;99.90;;;;;;5034498;28;20601;-80
2022/07/17 03:24:00;;;;;;;5.80;2.63;;;14.50;99.90;;;;;;5034944;28;20184;-80
2022/07/17 03:26:26;;;;;;;4.83;2.60;;;14.50;99.90;;;;;;5034789;28;20274;-81
2022/07/17 03:28:52;;;;;;;7.07;3.13;;;14.40;99.90;;;;;;5034645;28;20446;-80
2022/07/17 03:31:18;;;;;;;7.50;2.60;;;14.30;99.90;;;;;;5034674;28;20187;-80
2022/07/17 03:33:44;;;;;;;5.40;2.73;;;14.20;99.90;;;;;;5034607;28;20191;-80
2022/07/17 03:36:09;;;;;;;5.43;2.93;;;14.20;99.90;;;;;;5034570;28;20302;-80
2022/07/17 03:38:35;;;;;;;8.17;3.40;;;14.10;99.90;;;;;;5034720;28;20211;-80
2022/07/17 03:41:01;;;;;;;5.53;2.50;;;14.10;99.90;;;;;;5034843;28;20215;-80
2022/07/17 03:43:27;;;;;;;4.23;2.70;;;14.10;99.90;;;;;;5034662;28;20279;-80
2022/07/17 03:45:53;;;;;;;5.37;2.50;;;14.10;99.90;;;;;;5034614;28;20188;-80
2022/07/17 03:48:18;;;;;;;5.73;2.80;;;14.20;99.90;;;;;;5034551;28;20957;-80
2022/07/17 03:50:44;;;;;;;4.73;2.70;;;14.20;99.90;;;;;;5034727;28;20674;-80
2022/07/17 03:53:10;;;;;;;9.13;3.13;;;14.20;99.90;;;;;;5034729;28;20229;-81
2022/07/17 03:55:36;;;;;;;4.10;2.33;;;14.10;99.90;;;;;;5034449;28;20602;-79
2022/07/17 03:58:02;;;;;;;9.53;3.50;;;14.20;99.90;;;;;;5034328;28;20667;-80
2022/07/17 04:00:28;;;;;;;5.67;3.13;;;14.20;99.90;;;;;;5034579;28;20429;-80
2022/07/17 04:02:54;;;;;;;3.63;2.13;;;14.20;99.90;;;;;;5034344;28;20418;-80
2022/07/17 04:05:20;;;;;;;5.60;2.50;;;14.10;99.90;;;;;;5034255;28;20191;-78
2022/07/17 04:07:46;;;;;;;3.87;2.73;;;14.00;99.90;;;;;;5034175;28;20455;-78
2022/07/17 04:10:14;;;;;;;5.87;2.93;;;14.00;99.90;;;;;;5034399;28;20425;-77
2022/07/17 04:12:40;;;;;;;5.10;2.80;;;14.00;99.90;;;;;;5034376;28;20419;-78
2022/07/17 04:15:07;;;;;;;8.17;3.30;;;14.00;99.90;;;;;;5034094;28;20921;-78
2022/07/17 04:17:33;;;;;;;5.70;3.07;;;14.10;99.90;;;;;;5033838;28;20473;-78
2022/07/17 04:19:59;;;;;;;5.70;2.60;;;14.10;99.90;;;;;;5033997;28;20848;-78
2022/07/17 04:22:25;;;;;;;5.80;2.90;;;14.20;99.90;;;;;;5034086;28;20476;-78
2022/07/17 04:24:51;;;;;;;4.80;2.83;;;14.10;99.90;;;;;;5033839;28;20183;-78
2022/07/17 04:27:17;;;;;;;4.57;2.80;;;14.10;99.90;;;;;;5033686;28;20575;-78
2022/07/17 04:29:43;;;;;;;9.23;3.77;;;14.20;99.90;;;;;;5034065;28;20461;-78
2022/07/17 04:32:09;;;;;;;5.63;3.47;;;14.30;99.90;;;;;;5050462;22;20473;-75
2022/07/17 04:34:36;;;;;;;6.33;3.50;;;14.40;99.90;;;;;;5052431;28;20469;-75
2022/07/17 04:37:03;;;;;;;7.50;3.30;;;14.40;99.90;;;;;;5036996;28;20469;-76
2022/07/17 04:39:30;;;;;;;9.77;3.63;;;14.50;99.90;;;;;;5037448;28;20898;-76
2022/07/17 04:41:56;;;;;;;5.10;3.40;;;14.40;99.90;;;;;;5037445;28;20924;-76
2022/07/17 04:44:22;;;;;;;4.80;3.13;;;14.50;99.90;;;;;;5037262;28;20883;-76
2022/07/17 04:46:48;;;;;;;5.33;3.47;;;14.60;99.90;;;;;;5037321;28;20505;-76
2022/07/17 04:49:14;;;;;;;7.43;2.87;;;14.70;99.90;;;;;;5037032;28;20215;-75
2022/07/17 04:51:40;;;;;;;5.43;2.77;;;14.80;99.90;;;;;;5037271;28;20187;-76
2022/07/17 04:54:06;;;;;;;7.20;3.53;;;14.90;99.90;;;;;;5037180;28;20183;-76
2022/07/17 04:56:32;;;;;;;4.50;2.57;;;15.00;99.90;;;;;;5036956;28;20469;-76
2022/07/17 04:58:58;;;;;;;4.50;3.00;;;15.00;99.90;;;;;;5036909;28;20848;-76
2022/07/17 05:01:23;;;;;;;4.83;2.90;;;15.10;99.90;;;;;;5037084;28;20175;-76
2022/07/17 05:03:49;;;;;;;6.10;3.10;;;15.20;99.90;;;;;;5036777;28;20552;-76
2022/07/17 05:06:15;;;;;;;4.73;2.70;;;15.20;99.90;;;;;;5036695;28;20186;-76
2022/07/17 05:08:41;;;;;;;5.63;3.37;;;15.30;99.90;;;;;;5036867;28;20196;-76
2022/07/17 05:11:07;;;;;;;5.30;2.80;;;15.40;99.90;;;;;;5036928;28;20186;-76
2022/07/17 05:13:32;;;;;;;5.60;3.20;;;15.40;99.90;;;;;;5036864;28;20180;-75
2022/07/17 05:15:58;;;;;;;6.13;2.47;;;15.50;99.90;;;;;;5036350;28;20249;-76
2022/07/17 05:18:24;;;;;;;5.73;3.40;;;15.60;99.90;;;;;;5036494;28;20670;-76
2022/07/17 05:20:50;;;;;;;6.70;3.10;;;15.70;99.90;;;;;;5036537;28;20183;-76
2022/07/17 05:23:15;;;;;;;6.97;3.60;;;15.80;99.90;;;;;;5036816;28;20176;-76
2022/07/17 05:25:41;;;;;;;8.30;3.20;;;15.90;99.90;;;;;;5036313;28;20262;-76
2022/07/17 05:28:07;;;;;;;5.80;3.30;;;16.00;99.90;;;;;;5036381;28;20721;-75
2022/07/17 05:30:32;;;;;;;6.77;3.20;;;16.00;99.90;;;;;;5036413;28;20593;-76
2022/07/17 05:32:58;;;;;;;9.80;3.93;;;16.10;99.90;;;;;;5036278;28;20202;-76
2022/07/17 05:35:24;;;;;;;6.80;3.53;;;16.20;99.90;;;;;;5036197;28;20187;-76
2022/07/17 05:37:50;;;;;;;6.27;2.93;;;16.30;99.90;;;;;;5036006;28;20200;-76
2022/07/17 05:40:15;;;;;;;5.50;3.23;;;16.40;99.90;;;;;;5036306;28;20187;-76
2022/07/17 05:42:41;;;;;;;6.53;3.23;;;16.50;99.90;;;;;;5036216;28;20310;-76
2022/07/17 05:45:07;;;;;;;5.97;3.60;;;16.50;99.90;;;;;;5035594;28;20179;-76
2022/07/17 05:47:33;;;;;;;7.43;3.80;;;16.60;99.90;;;;;;5035840;28;20203;-76
2022/07/17 05:49:59;;;;;;;5.97;3.80;;;16.70;99.90;;;;;;5036065;28;20512;-76
2022/07/17 05:52:25;;;;;;;8.83;3.90;;;16.80;99.90;;;;;;5036178;28;20180;-76
2022/07/17 05:54:51;;;;;;;7.70;4.67;;;16.90;99.90;;;;;;5035993;28;20187;-76
2022/07/17 05:57:16;;;;;;;7.27;3.20;;;17.00;99.90;;;;;;5035623;28;20660;-76
2022/07/17 05:59:42;;;;;;;6.47;4.03;;;17.10;99.90;;;;;;5035947;28;20453;-76
2022/07/17 06:02:08;;;;;;;8.70;4.70;;;17.20;99.90;;;;;;5035824;28;20180;-76
2022/07/17 06:04:34;;;;;;;6.53;3.60;;;17.30;99.90;;;;;;5035855;28;20179;-77
2022/07/17 06:06:59;;;;;;;8.20;3.60;;;17.40;99.90;;;;;;5035595;28;20180;-77
2022/07/17 06:09:25;;;;;;;12.10;4.57;;;17.40;99.90;;;;;;5035771;28;20190;-77
2022/07/17 06:11:51;;;;;;;6.80;3.87;;;17.50;99.90;;;;;;5035719;28;20183;-76
2022/07/17 06:14:17;;;;;;;6.50;3.67;;;17.70;99.90;;;;;;5035769;28;20426;-77
2022/07/17 06:16:46;;;;;;;9.37;3.97;;;17.80;99.90;;;;;;5035344;28;20207;-77
2022/07/17 06:19:12;;;;;;;6.80;3.83;;;17.90;99.90;;;;;;5035563;28;20226;-77
2022/07/17 06:21:37;;;;;;;6.33;3.63;;;18.10;99.90;;;;;;5035582;28;20426;-77
2022/07/17 06:24:04;;;;;;;8.30;3.10;;;18.10;99.90;;;;;;5035626;28;20187;-77
2022/07/17 06:26:29;;;;;;;5.40;3.67;;;18.20;99.90;;;;;;5035073;28;20187;-76
2022/07/17 06:28:55;;;;;;;9.23;4.10;;;18.30;99.90;;;;;;5035348;28;20525;-77
2022/07/17 06:31:22;;;;;;;6.20;3.53;;;18.40;99.90;;;;;;5035246;28;20180;-76
2022/07/17 06:33:47;;;;;;;5.93;3.30;;;18.40;99.90;;;;;;5035535;28;20580;-76
2022/07/17 06:36:13;;;;;;;5.53;3.40;;;18.50;99.90;;;;;;5034933;28;20473;-76
2022/07/17 06:38:39;;;;;;;6.70;3.57;;;18.60;99.90;;;;;;5035193;28;20196;-77
2022/07/17 06:41:05;;;;;;;7.50;2.97;;;18.70;99.90;;;;;;5035144;28;20203;-76
2022/07/17 06:43:31;;;;;;;6.67;3.40;;;18.80;99.90;;;;;;5035372;28;20195;-76
2022/07/17 06:45:57;;;;;;;10.13;3.17;;;18.90;99.90;;;;;;5034646;28;20572;-76
2022/07/17 06:48:23;;;;;;;5.23;3.07;;;19.00;99.90;;;;;;5035040;28;20694;-77
2022/07/17 06:50:49;;;;;;;6.30;3.50;;;19.00;99.90;;;;;;5035024;28;20201;-76
2022/07/17 06:53:15;;;;;;;6.83;3.17;;;19.10;99.90;;;;;;5035130;28;20485;-77
2022/07/17 06:55:41;;;;;;;8.10;3.30;;;19.10;99.90;;;;;;5033616;28;20806;-76
2022/07/17 06:58:07;;;;;;;4.53;3.33;;;19.20;99.90;;;;;;5034795;28;20533;-77
2022/07/17 07:00:33;;;;;;;7.83;3.73;;;19.30;99.90;;;;;;5034591;28;20944;-77
2022/07/17 07:02:59;;;;;;;6.50;3.40;;;19.40;99.90;;;;;;5034704;28;20461;-76
2022/07/17 07:05:25;;;;;;;8.20;3.87;;;19.50;99.90;;;;;;5034854;28;20210;-76
2022/07/17 07:07:51;;;;;;;7.70;3.67;;;19.60;99.90;;;;;;5034382;28;20881;-77
2022/07/17 07:10:17;;;;;;;10.93;3.30;;;19.70;99.90;;;;;;5034493;28;20270;-77
2022/07/17 07:12:42;;;;;;;7.80;3.73;;;19.80;99.90;;;;;;5034540;28;20176;-76
2022/07/17 07:15:09;;;;;;;5.03;3.13;;;19.80;99.90;;;;;;5034778;28;20183;-76
2022/07/17 07:17:35;;;;;;;6.77;3.37;;;19.90;99.90;;;;;;5034014;28;20698;-77
2022/07/17 07:20:04;;;;;;;6.33;3.30;;;19.90;99.90;;;;;;5034719;28;20468;-77
2022/07/17 07:22:31;;;;;;;5.70;2.97;;;19.90;99.90;;;;;;5034379;28;20505;-76
2022/07/17 07:24:57;;;;;;;7.20;2.57;;;20.00;99.90;;;;;;5034490;28;20418;-77
2022/07/17 07:27:23;;;;;;;4.70;2.70;;;20.10;99.90;;;;;;5033767;28;20949;-76
2022/07/17 07:29:49;;;;;;;4.20;2.63;;;20.20;99.90;;;;;;5034279;28;20184;-76
2022/07/17 07:32:15;;;;;;;6.40;2.43;;;20.30;99.90;;;;;;5034036;28;20270;-76
2022/07/17 07:34:41;;;;;;;5.47;2.80;;;20.30;99.90;;;;;;5034281;28;20513;-76
2022/07/17 07:37:07;;;;;;;4.00;2.67;;;20.40;99.90;;;;;;5033604;28;20486;-76
2022/07/17 07:39:33;;;;;;;4.20;2.60;;;20.50;99.90;;;;;;5034229;28;20599;-76
2022/07/17 07:41:59;;;;;;;7.00;3.30;;;20.60;99.90;;;;;;5033927;28;20716;-75
2022/07/17 07:44:25;;;;;;;5.10;2.63;;;20.60;99.90;;;;;;5034239;28;20191;-77
2022/07/17 07:46:51;;;;;;;6.77;2.70;;;20.70;99.90;;;;;;5034081;28;20834;-76
2022/07/17 07:49:17;;;;;;;3.90;2.33;;;20.80;99.90;;;;;;5033946;28;20438;-76
2022/07/17 07:51:43;;;;;;;6.13;2.40;;;21.00;99.90;;;;;;5033854;28;20180;-76
2022/07/17 07:54:12;;;;;;;5.10;3.10;;;21.10;99.90;;;;;;5034018;28;20179;-75
2022/07/17 07:56:38;;;;;;;7.70;2.50;;;21.20;99.90;;;;;;5033339;28;20468;-76
2022/07/17 07:59:04;;;;;;;5.77;3.30;;;21.30;99.90;;;;;;5033753;28;20517;-76
2022/07/17 08:01:30;;;;;;;4.87;2.40;;;21.40;99.90;;;;;;5033756;28;20179;-76
2022/07/17 08:03:55;;;;;;;7.57;2.87;;;21.50;99.90;;;;;;5033794;28;20422;-76
2022/07/17 08:06:21;;;;;;;5.43;2.80;;;21.60;99.90;;;;;;5033365;28;20422;-76
2022/07/17 08:08:47;;;;;;;5.53;3.00;;;21.80;99.90;;;;;;5033714;28;20204;-76
2022/07/17 08:11:14;;;;;;;7.20;2.73;;;22.20;99.90;;;;;;5033586;28;20441;-77
2022/07/17 08:13:40;;;;;;;4.07;2.33;;;23.40;99.90;;;;;;5033738;28;20608;-76
2022/07/17 08:16:06;;;;;;;7.80;2.47;;;24.50;99.90;;;;;;5033594;28;20458;-76
2022/07/17 08:18:34;;;;;;;5.70;2.47;;;25.70;99.90;;;;;;5033730;28;20430;-77
2022/07/17 08:21:00;;;;;;;8.10;2.50;;;26.60;99.20;;;;;;5033958;28;20843;-77
2022/07/17 08:23:26;;;;;;;3.73;1.90;;;27.80;95.10;;;;;;5034583;28;20428;-77
2022/07/17 08:25:52;;;;;;;5.30;2.50;;;28.50;89.50;;;;;;5033970;28;20426;-76
2022/07/17 08:28:17;;;;;;;4.83;2.47;;;29.30;82.00;;;;;;5035606;28;20207;-77
2022/07/17 08:30:43;;;;;;;4.47;2.30;;;29.90;75.70;;;;;;5035234;28;20180;-77
2022/07/17 08:33:10;;;;;;;5.03;2.10;;;30.40;67.50;;;;;;5034566;28;20569;-77
2022/07/17 08:35:36;;;;;;;4.90;2.10;;;30.70;62.30;;;;;;5037686;28;20184;-77
2022/07/17 08:38:03;;;;;;;6.47;2.47;;;31.10;57.70;;;;;;5035515;28;20442;-77
2022/07/17 08:40:36;;;;;;;6.07;2.10;;;31.50;57.20;;;;;;5035720;28;20410;-77
2022/07/17 08:43:07;;;;;;;4.87;2.10;;;32.30;57.40;;;;;;5035930;28;20560;-77
2022/07/17 08:45:33;;;;;;;3.33;1.97;;;33.10;53.80;;;;;;5036586;28;20903;-77
2022/07/17 08:48:00;;;;;;;4.30;2.00;;;34.10;53.60;;;;;;5036347;28;20937;-77
2022/07/17 08:50:34;;;;;;;4.50;1.93;;;34.70;49.40;;;;;;5036596;28;20717;-77
2022/07/17 08:53:01;;;;;;;4.73;2.03;;;35.20;46.00;;;;;;5036972;28;20501;-77
2022/07/17 08:55:28;;;;;;;3.83;2.03;;;35.80;42.50;;;;;;5037564;28;20421;-77
2022/07/17 08:57:54;;;;;;;5.77;1.87;;;36.10;41.80;;;;;;5036528;28;20473;-77
2022/07/17 09:00:22;;;;;;;4.80;1.80;;;36.60;40.30;;;;;;5038007;28;20460;-78
2022/07/17 09:03:00;;;;;;;4.30;1.73;;;36.80;39.30;;;;;;5036749;28;20521;-78
2022/07/17 09:05:37;;;;;;;5.57;1.70;;;37.40;38.40;;;;;;5039131;28;20859;-78
2022/07/17 09:08:05;;;;;;;6.23;2.20;;;38.00;57.40;;;;;;5038264;28;20468;-77
2022/07/17 09:10:39;;;;;;;4.80;1.60;;;38.30;36.50;;;;;;5037507;28;20449;-78
2022/07/17 09:13:16;;;;;;;3.70;1.90;;;38.60;35.00;;;;;;5036546;28;20433;-77
2022/07/17 09:15:42;;;;;;;5.03;1.77;;;38.50;34.20;;;;;;5036087;28;20416;-77
2022/07/17 09:18:08;;;;;;;2.80;1.50;;;38.70;34.20;;;;;;5037575;28;20438;-77
2022/07/17 09:20:34;;;;;;;4.30;2.17;;;38.80;33.40;;;;;;5040177;28;20440;-77
2022/07/17 09:23:04;;;;;;;5.50;1.83;;;39.00;33.30;;;;;;5042192;28;20681;-77
2022/07/17 09:25:53;;;;;;;4.20;2.00;;;38.90;32.50;;;;;;5042422;28;20179;-76
2022/07/17 09:28:20;;;;;;;6.10;1.80;;;39.30;34.40;;;;;;5042554;28;20476;-78
2022/07/17 09:30:54;;;;;;;3.90;1.60;;;39.90;33.40;;;;;;5042927;28;20423;-78
2022/07/17 09:33:23;;;;;;;3.47;1.60;;;39.80;31.50;;;;;;5042006;28;20524;-77
2022/07/17 09:36:05;;;;;;;3.57;1.50;;;40.10;32.40;;;;;;5041518;28;20414;-77
2022/07/17 09:38:35;;;;;;;4.00;1.70;;;40.00;30.50;;;;;;5040492;28;20444;-77
2022/07/17 09:41:18;;;;;;;4.27;2.07;;;40.40;30.80;;;;;;5042141;28;20461;-77
2022/07/17 09:43:52;;;;;;;3.30;1.70;;;40.80;30.00;;;;;;5041724;28;20512;-77
2022/07/17 09:46:28;;;;;;;4.30;1.70;;;41.40;30.30;;;;;;5041805;28;20421;-77
2022/07/17 09:48:56;;;;;;;3.83;1.43;;;41.70;29.80;;;;;;5042419;28;20924;-78
2022/07/17 09:51:27;;;;;;;4.80;1.80;;;41.90;30.00;;;;;;5043022;28;20983;-77
2022/07/17 09:53:56;;;;;;;5.83;2.53;;;42.00;29.80;;;;;;5043065;28;20424;-77
2022/07/17 09:56:24;;;;;;;4.17;1.67;;;41.90;28.60;;;;;;5042191;28;20748;-78
2022/07/17 09:58:52;;;;;;;5.00;1.80;;;42.00;28.40;;;;;;5041476;28;20434;-77
2022/07/17 10:01:19;;;;;;;5.23;2.13;;;41.90;28.20;;;;;;5042689;28;20455;-76
2022/07/17 10:03:48;;;;;;;4.23;1.70;;;42.00;28.40;;;;;;5042262;28;20171;-77
2022/07/17 10:06:14;;;;;;;4.60;1.70;;;42.30;28.00;;;;;;5042382;28;20422;-76
2022/07/17 10:08:40;;;;;;;4.00;1.80;;;42.10;26.50;;;;;;5042151;28;20441;-78
2022/07/17 10:11:08;;;;;;;4.03;1.73;;;41.90;28.00;;;;;;5043481;28;20425;-78
2022/07/17 10:13:43;;;;;;;4.80;2.17;;;41.90;27.80;;;;;;5042714;28;20186;-78
2022/07/17 10:16:10;;;;;;;3.23;1.50;;;41.70;27.70;;;;;;5042736;28;20457;-78
2022/07/17 10:18:39;;;;;;;2.80;1.70;;;41.90;29.10;;;;;;5043463;28;20437;-78
2022/07/17 10:21:14;;;;;;;3.63;2.10;;;42.40;29.30;;;;;;5043332;28;20822;-77
2022/07/17 10:23:42;;;;;;;4.27;2.13;;;42.90;28.00;;;;;;5040576;28;20412;-76
2022/07/17 10:26:08;;;;;;;2.80;1.50;;;43.20;27.10;;;;;;5035457;28;20944;-76
2022/07/17 10:28:46;;;;;;;4.03;2.40;;;43.00;27.60;;;;;;5035169;28;20218;-76
2022/07/17 10:31:26;;;;;;;3.27;1.73;;;43.20;27.30;;;;;;5035279;28;20269;-75
2022/07/17 10:33:59;;;;;;;3.38;1.67;;;43.40;27.40;;;;;;5039266;23;20273;-76
2022/07/17 10:36:38;;;;;;;3.80;1.80;;;43.70;26.50;;;;;;5015098;28;20313;-76
2022/07/17 10:39:21;;;;;;;3.93;2.17;;;43.70;26.30;;;;;;5015303;28;20219;-76
2022/07/17 10:41:58;;;;;;;4.90;2.00;;;42.40;25.80;;;;;;5015466;28;20266;-76
2022/07/17 10:44:28;;;;;;;3.93;2.00;;;41.30;26.30;;;;;;5015161;28;20305;-76
2022/07/17 10:46:55;;;;;;;3.70;2.10;;;40.70;27.20;;;;;;5014785;28;20190;-75
2022/07/17 10:49:24;;;;;;;2.77;1.67;;;40.10;26.60;;;;;;5015365;28;20427;-75
2022/07/17 10:51:50;;;;;;;4.40;1.60;;;39.40;27.10;;;;;;5014970;28;20862;-77
2022/07/17 10:54:17;;;;;;;5.50;1.80;;;38.60;27.60;;;;;;5016594;28;20430;-78
2022/07/17 10:56:46;;;;;;;3.53;2.00;;;37.10;29.00;;;;;;5016664;28;20702;-78
2022/07/17 10:59:12;;;;;;;3.23;1.80;;;35.70;29.80;;;;;;5017448;28;20667;-78
2022/07/17 11:01:39;;;;;;;3.80;2.03;;;34.40;31.70;;;;;;5016914;28;20420;-78
2022/07/17 11:04:06;;;;;;;5.97;2.27;;;33.60;32.20;;;;;;5016387;28;20480;-78
2022/07/17 11:06:37;;;;;;;5.10;1.80;;;32.80;33.00;;;;;;5015511;28;20430;-78
2022/07/17 11:09:08;;;;;;;5.53;2.60;;;32.00;33.50;;;;;;5015679;28;20453;-78
2022/07/17 11:11:46;;;;;;;3.23;1.80;;;31.30;35.10;;;;;;5015822;28;20910;-78
2022/07/17 11:14:16;;;;;;;4.07;2.50;;;31.30;36.00;;;;;;5015856;28;20552;-77
2022/07/17 11:16:46;;;;;;;6.17;2.00;;;31.20;37.10;;;;;;5015254;28;20558;-77
2022/07/17 11:19:19;;;;;;;5.33;2.27;;;31.50;35.90;;;;;;5015194;28;20527;-78
2022/07/17 11:21:50;;;;;;;4.33;2.37;;;31.70;34.70;;;;;;5015153;28;20948;-77
2022/07/17 11:24:17;;;;;;;4.00;1.90;;;31.90;34.50;;;;;;4999384;28;20447;-78
2022/07/17 11:26:46;;;;;;;4.90;2.57;;;32.30;34.60;;;;;;5015221;28;20431;-78
2022/07/17 11:29:14;;;;;;;3.90;1.93;;;32.80;34.80;;;;;;5015743;28;20453;-78
2022/07/17 11:31:40;;;;;;;4.20;2.00;;;33.00;33.70;;;;;;5016232;28;20484;-78
2022/07/17 11:34:09;;;;;;;5.20;1.70;;;32.80;34.20;;;;;;5015803;28;20862;-77
2022/07/17 11:36:41;;;;;;;4.03;2.03;;;32.40;34.70;;;;;;5015014;28;20866;-78
2022/07/17 11:39:15;;;;;;;5.50;2.07;;;31.90;33.80;;;;;;5015243;28;20470;-78
2022/07/17 11:41:47;;;;;;;4.20;1.97;;;31.30;33.70;;;;;;5015135;28;20912;-78
2022/07/17 11:44:19;;;;;;;4.10;2.00;;;30.90;34.70;;;;;;5015274;28;20498;-78
2022/07/17 11:46:48;;;;;;;5.97;2.40;;;30.60;34.50;;;;;;5015604;28;20439;-77
2022/07/17 11:49:27;;;;;;;4.47;1.97;;;30.50;35.70;;;;;;5016054;28;20502;-77
2022/07/17 11:51:57;;;;;;;4.63;1.80;;;30.30;36.70;;;;;;5016258;28;20431;-78
2022/07/17 11:54:23;;;;;;;4.10;1.93;;;30.20;38.10;;;;;;5016887;28;20522;-78
2022/07/17 11:57:01;;;;;;;4.53;1.80;;;30.20;38.20;;;;;;5015779;28;20565;-78
2022/07/17 11:59:30;;;;;;;3.20;1.53;;;30.20;38.00;;;;;;5016230;28;20669;-78
2022/07/17 12:01:56;;;;;;;3.53;1.87;;;30.10;37.30;;;;;;5017476;28;20449;-78
2022/07/17 12:04:22;;;;;;;6.10;1.93;;;30.10;37.30;;;;;;5017039;28;20457;-78
2022/07/17 12:07:02;;;;;;;4.10;1.70;;;30.10;36.60;;;;;;5016740;28;20199;-77
2022/07/17 12:09:35;;;;;;;3.67;1.60;;;30.00;36.10;;;;;;5016874;28;20547;-78
2022/07/17 12:12:02;;;;;;;4.03;2.00;;;30.00;37.40;;;;;;5017066;28;20539;-78
2022/07/17 12:14:29;;;;;;;4.37;2.00;;;29.80;36.60;;;;;;5016903;28;20423;-77
2022/07/17 12:17:03;;;;;;;3.17;1.53;;;29.70;37.50;;;;;;5015820;28;20477;-77
2022/07/17 12:19:29;;;;;;;4.93;2.23;;;29.60;36.20;;;;;;5015298;28;20420;-78
2022/07/17 12:21:58;;;;;;;5.07;2.20;;;29.50;35.40;;;;;;5016231;28;20504;-78
2022/07/17 12:24:27;;;;;;;3.60;1.87;;;29.40;36.80;;;;;;5015806;28;20869;-78
2022/07/17 12:26:56;;;;;;;3.10;1.93;;;29.30;37.60;;;;;;5016495;28;20423;-78
2022/07/17 12:29:22;;;;;;;5.83;2.03;;;29.40;37.70;;;;;;5016081;28;20414;-77
2022/07/17 12:31:49;;;;;;;3.30;1.90;;;29.30;35.50;;;;;;5015673;28;20442;-78
2022/07/17 12:34:15;;;;;;;5.03;2.00;;;29.20;36.20;;;;;;5016329;28;20837;-77
2022/07/17 12:36:40;;;;;;;5.50;2.00;;;29.40;37.70;;;;;;5016257;28;20467;-78
2022/07/17 12:39:06;;;;;;;5.60;2.10;;;29.30;37.10;;;;;;5017089;28;20196;-78
2022/07/17 12:41:32;;;;;;;2.80;1.70;;;29.30;36.50;;;;;;5018069;28;20177;-78
2022/07/17 12:43:58;;;;;;;4.57;2.00;;;29.40;37.20;;;;;;5016679;28;20184;-77
2022/07/17 12:46:24;;;;;;;3.10;1.77;;;29.50;37.50;;;;;;5014840;28;20181;-78
2022/07/17 12:48:50;;;;;;;3.53;1.90;;;29.60;35.10;;;;;;5014900;28;20196;-77